Sunday, April 22, 2018, 1:50 PM EDT

KPTW, Pottstown Limerick Airport

Location: Royersford, PA, United States Lat: 40.233
Local Time: 1:50 PM EDT (17:50 GMT) Lon: -75.55
Time Zone: US/Eastern Elev: 291 ft

Show me the last for .
Show Decoded

2018-04-22 12:54 METAR KPTW 221654Z AUTO 21004KT 10SM CLR 16/M03 A3041 RMK AO2 SLP294 T01611033 =
2018-04-22 11:54 METAR KPTW 221554Z AUTO 00000KT 10SM CLR 14/M06 A3043 RMK AO2 SLP302 T01391061 =
2018-04-22 10:54 METAR KPTW 221454Z AUTO 03006KT 10SM CLR 14/M04 A3044 RMK AO2 SLP306 T01391044
                 58002 =
2018-04-22 09:54 METAR KPTW 221354Z AUTO VRB03KT 10SM CLR 12/M06 A3044 RMK AO2 SLP308 T01221056 =
2018-04-22 08:54 METAR KPTW 221254Z AUTO 00000KT 10SM CLR 10/M02 A3045 RMK AO2 SLP310 T01001022 =
2018-04-22 07:54 METAR KPTW 221154Z AUTO 00000KT 9SM CLR 06/00 A3045 RMK AO2 SLP308 T00560000
                 10056 20000 51012 =
2018-04-22 06:54 METAR KPTW 221054Z AUTO 00000KT 9SM CLR 01/M03 A3043 RMK AO2 SLP305 T00061033 =
2018-04-22 05:54 METAR KPTW 220954Z AUTO 00000KT 10SM CLR 00/M04 A3043 RMK AO2 SLP303 T00001039 =
2018-04-22 04:54 METAR KPTW 220854Z AUTO 00000KT 10SM CLR 02/M03 A3041 RMK AO2 SLP297 T00171033
                 53001 =
2018-04-22 03:54 METAR KPTW 220754Z AUTO 00000KT 10SM CLR 02/M03 A3040 RMK AO2 SLP292 T00221033 =
2018-04-22 02:54 METAR KPTW 220654Z AUTO 00000KT 10SM CLR 03/M03 A3041 RMK AO2 SLP294 T00331033 =
2018-04-22 01:54 METAR KPTW 220554Z AUTO 00000KT 10SM CLR 04/M03 A3041 RMK AO2 SLP295 T00391028
                 10122 20039 51012 =
2018-04-22 00:54 METAR KPTW 220454Z AUTO 00000KT 10SM CLR 06/M02 A3040 RMK AO2 SLP293 T00561017
                 401501028 =
2018-04-21 23:54 METAR KPTW 220354Z AUTO 00000KT 10SM CLR 06/M02 A3038 RMK AO2 SLP287 T00611022 =
2018-04-21 22:54 METAR KPTW 220254Z AUTO 00000KT 10SM CLR 08/M01 A3037 RMK AO2 SLP283 T00831011
                 51013 =
2018-04-21 21:54 METAR KPTW 220154Z AUTO 00000KT 10SM CLR 08/M01 A3036 RMK AO2 SLP279 T00831011 =
2018-04-21 20:54 METAR KPTW 220054Z AUTO 25003KT 10SM CLR 11/M02 A3035 RMK AO2 SLP275 T01111022 =
2018-04-21 19:54 METAR KPTW 212354Z AUTO 23003KT 10SM CLR 12/M04 A3033 RMK AO2 SLP271 T01221039
                 10150 20122 53004 =
2018-04-21 18:54 METAR KPTW 212254Z AUTO 28005KT 10SM CLR 13/M04 A3032 RMK AO2 SLP267 T01331039 =
2018-04-21 17:54 METAR KPTW 212154Z AUTO 26006KT 10SM CLR 14/M03 A3032 RMK AO2 SLP266 T01391033 =
2018-04-21 16:54 METAR KPTW 212054Z AUTO 28004KT 10SM CLR 14/M03 A3032 RMK AO2 SLP268 T01391033
                 56019 =
2018-04-21 15:54 METAR KPTW 211954Z AUTO 31009KT 10SM CLR 14/M03 A3033 RMK AO2 SLP271 T01391033 =
2018-04-21 14:54 METAR KPTW 211854Z AUTO 27008KT 10SM CLR 14/M03 A3035 RMK AO2 SLP277 T01391028 =
2018-04-21 13:54 METAR KPTW 211754Z AUTO VRB05KT 10SM CLR 12/M03 A3038 RMK AO2 SLP287 T01221033
                 10128 20033 58027 =

Support USWX by starting your Amazon purchase here.